Historyczne dane pomiarowe

Dodano dane terminowe – wersja testowa.

Dane z okresu 1951-2019

Wersja bazy: 1.34 [2019-03-16, lista zmian], aktualizacja planowana na 2019-04-15

Dane meteo z obszaru Polski uzyskane na podstawie danych udostępnionych przez Instytut Meteorologii i Gospodarki Wodnej – Państwowy Instytut Badawczy.

 

Wybierz Datę:    

       

TemperaturaWilgotnośćWiatrCiśnienieOpadyŚniegCzas trwania zjawisk
 Stacja t tx tn tng RH VA  wxwx mslp ppp RRR   cm mm wxwxwxwxwxwxwx
2019-06-29 19.3 26.8 11.1 6.8-- 2.7----- 0.0------------
2019-06-28 16.5 22.3 10.6 7.9-- 6.0----- 0.0------------
2019-06-27 24.1 30.1 21.0 19.8-- 3.3----- 0.0------------
2019-06-26 27.0 33.9 19.0 16.3-- 2.7----- 0.0------------
2019-06-25 23.3 30.3 13.2 11.4-- 2.7----- 0.0------------
2019-06-24 20.5 26.3 13.5 10.9-- 2.7----- 0.0------------
2019-06-23 19.5 25.3 13.4 13.6-- 4.7----- 0.0------------
2019-06-22 18.8 24.8 13.5 11.8-- 6.7----- 0.0------------
2019-06-21 20.3 26.3 14.9 13.8-- 5.7----- 3.7------------
2019-06-20 22.3 27.8 17.5 16.3-- 7.0----- 0.0------------
2019-06-19 21.1 27.8 13.6 11.9-- 4.7----- 0.0------------
2019-06-18 19.2 24.8 12.0 9.9-- 4.0----- 0.0------------
2019-06-17 18.0 23.8 13.0 10.9-- 3.3----- 0.0------------
2019-06-16 20.8 26.3 15.5 13.8-- 5.7----- 1.7------------
2019-06-15 24.7 31.9 17.4 16.3-- 5.3----- 0.0------------
2019-06-14 22.2 28.3 17.7 17.8-- 5.0----- 0.0------------
2019-06-13 24.0 31.0 17.0 15.8-- 4.7----- 3.1------------
2019-06-12 25.4 31.3 18.0 15.3-- 2.0----- 0.0------------
2019-06-11 23.3 30.8 16.3 14.8-- 3.0----- 0.0------------
2019-06-10 23.1 28.8 16.5 16.8-- 2.7----- 0.0------------
2019-06-09 18.6 24.8 9.6 6.4-- 2.7----- 0.0------------
2019-06-08 19.7 26.3 15.0 9.9-- 4.7----- 0.0------------
2019-06-07 19.3 24.3 15.0 13.7-- 4.7----- 0.0------------
2019-06-06 19.7 25.8 12.5 11.8-- 4.0----- 0.0------------
2019-06-05 20.4 25.8 14.5 13.8-- 3.3----- 1.2------------
2019-06-04 20.4 26.8 14.0 11.9-- 2.0----- 0.0------------
2019-06-03 19.1 25.3 10.6 7.5-- 2.3----- 0.0------------
2019-06-02 18.7 25.8 11.0 8.4-- 4.7----- 0.0------------
2019-06-01 17.2 22.3 11.1 7.4-- 4.0----- 0.0------------
2019-05-31 15.2 22.3 8.1 6.4-- 5.0----- 0.0------------
2019-05-30 9.9 15.7 4.3 1.9-- 5.7----- 0.6------------
2019-05-29 11.7 14.8 8.6 8.8-- 7.3----- 0.5------------
2019-05-28 15.9 19.8 12.5 12.7-- 5.7----- 6.5------------
2019-05-27 17.9 23.8 11.5 8.4-- 5.3----- 2.1------------
2019-05-26 14.9 21.8 8.6 5.9-- 3.3----- 0.0------------
2019-05-25 14.4 21.8 6.7 2.6-- 6.0----- 0.5------------
2019-05-24 12.8 17.3 8.6 6.9-- 7.0----- 0.0------------
2019-05-23 11.4 14.3 9.6 9.4-- 8.0----- 3.2------------
2019-05-22 13.3 15.8 11.1 10.4-- 8.0----- 67.2------------
2019-05-21 13.8 18.3 9.6 5.0-- 8.0----- 0.8------------
2019-05-20 15.8 20.8 10.6 7.9-- 7.0----- 0.0------------
2019-05-19 16.2 23.8 9.0 6.4-- 4.0----- 0.0------------
2019-05-18 15.1 22.8 7.6 5.0-- 5.0----- 0.5------------
2019-05-17 13.6 18.8 9.6 8.6-- 7.3----- 2.6------------
2019-05-16 10.6 14.3 7.2 4.5-- 7.3----- 9.7------------
2019-05-15 6.8 8.3 4.7 3.0-- 8.0----- 8.1------------
2019-05-14 4.9 6.9 2.8 2.0-- 8.0----- 10.5------------
2019-05-13 6.6 10.8 4.3 3.1-- 7.3----- 0.0------------
2019-05-12 10.3 15.3 7.0 5.9-- 7.3----- 4.2------------
2019-05-11 12.4 18.3 6.2 3.0-- 7.3----- 0.0------------
2019-05-10 10.2 16.8 5.7 3.4-- 7.3----- 1.2------------
2019-05-09 9.0 12.3 6.7 4.6-- 8.0----- 6.2------------
2019-05-08 8.8 15.3 1.8 -1.4-- 5.0----- 0.2------------
2019-05-07 7.0 11.8 1.8 0.2-- 6.0----- 0.0------------
2019-05-06 7.1 10.3 3.8 1.2-- 8.0----- 0.0------------
2019-05-05 6.0 13.3 1.3 1.0-- 8.0----- 0.0------------
2019-05-04 9.2 14.8 2.8 -0.5-- 7.0----- 1.9------------
2019-05-03 9.5 13.1 6.7 3.5-- 7.7----- 0.0------------
2019-05-02 12.1 17.8 7.2 5.4-- 4.7----- 0.0------------
2019-05-01 10.5 16.8 4.7 0.5-- 4.7----- 0.3------------
165.6 ms

 

Źródłem pochodzenia danych jest Instytut Meteorologii i Gospodarki Wodnej – Państwowy Instytut Badawczy. Dane Instytutu Meteorologii i Gospodarki Wodnej – Państwowego Instytutu Badawczego zostały przetworzone.

Dane źródłowe można odnaleźć na stronie https://dane.imgw.pl